Аэропорт: Нахичевань. Нахичевань

ICAO: UBBN

METAR:
2019/01/21 23:00
UBBN 212300Z VRB02KT 9000 FEW100 M07/M09 Q1020 R14R/CLRD// NOSIG RMK MT OBSC QFE690
METAR:
2019/01/21 18:00
TAF UBBN 211700Z 2118/2218 VRB04KT 9999 FEW050 SCT100 TX04/2212Z TNM09/2203Z 
      TEMPO 2118/2204 03006KT 
      TEMPO 2209/2218 22008KT